McGehee, Arkansas
Current Conditions -  °F | °C
As of 4:53 PM on Thursday 20 Nov 2014 (Local Time) from KLLQ Reporting Station
Few Clouds Few Clouds  
Wind Chill: 54°   Ceiling: Unl
Heat Index: 54°   Visibility: 10mi
Dew Point: 48°   Wind: 3mph
Humidity: 80%   Direction: 60°ENE
Pressure: 30.17"   Gusts: NA
Location:  33.63°N, 91.39°W
Report Text: KLLQ 202253Z AUTO 06003KT 10SM FEW065 12/09 A3017 RMK AO2 SLP214 T01220089
Loading
Personal Weather Stations






























Interactive Weather Map New forecast layout! Learn more

10-Day Weather Forecast

Advertisements
Track Severe Weather on mobile